sensor_id;sensor_type;location;lat;lon;timestamp;P1;durP1;ratioP1;P2;durP2;ratioP2
12585;SDS011;6358;50.760;0.282;2023-08-08T00:01:43;3.65;;;1.65;;
12585;SDS011;6358;50.760;0.282;2023-08-08T00:04:10;4.03;;;1.83;;
12585;SDS011;6358;50.760;0.282;2023-08-08T00:06:36;3.17;;;1.60;;
12585;SDS011;6358;50.760;0.282;2023-08-08T00:09:03;2.40;;;1.70;;
12585;SDS011;6358;50.760;0.282;2023-08-08T00:11:29;3.10;;;1.70;;
12585;SDS011;6358;50.760;0.282;2023-08-08T00:13:56;3.13;;;1.57;;
12585;SDS011;6358;50.760;0.282;2023-08-08T00:16:22;3.07;;;1.63;;
12585;SDS011;6358;50.760;0.282;2023-08-08T00:18:48;3.30;;;1.60;;
12585;SDS011;6358;50.760;0.282;2023-08-08T00:21:15;3.40;;;1.58;;
12585;SDS011;6358;50.760;0.282;2023-08-08T00:23:41;2.97;;;1.47;;
12585;SDS011;6358;50.760;0.282;2023-08-08T00:26:07;2.73;;;1.53;;
12585;SDS011;6358;50.760;0.282;2023-08-08T00:28:33;3.90;;;1.57;;
12585;SDS011;6358;50.760;0.282;2023-08-08T00:31:00;3.30;;;1.47;;
12585;SDS011;6358;50.760;0.282;2023-08-08T00:33:26;2.20;;;1.40;;
12585;SDS011;6358;50.760;0.282;2023-08-08T00:35:52;3.70;;;1.70;;
12585;SDS011;6358;50.760;0.282;2023-08-08T00:38:18;2.37;;;1.50;;
12585;SDS011;6358;50.760;0.282;2023-08-08T00:40:44;2.67;;;1.40;;
12585;SDS011;6358;50.760;0.282;2023-08-08T00:43:10;5.37;;;1.70;;
12585;SDS011;6358;50.760;0.282;2023-08-08T00:45:37;2.70;;;1.30;;
12585;SDS011;6358;50.760;0.282;2023-08-08T00:48:03;1.93;;;1.60;;
12585;SDS011;6358;50.760;0.282;2023-08-08T00:50:29;3.50;;;1.67;;
12585;SDS011;6358;50.760;0.282;2023-08-08T00:52:56;3.97;;;1.83;;
12585;SDS011;6358;50.760;0.282;2023-08-08T00:55:22;1.97;;;1.37;;
12585;SDS011;6358;50.760;0.282;2023-08-08T00:57:48;3.03;;;1.57;;
12585;SDS011;6358;50.760;0.282;2023-08-08T01:00:15;1.93;;;1.30;;
12585;SDS011;6358;50.760;0.282;2023-08-08T01:02:41;2.23;;;1.40;;
12585;SDS011;6358;50.760;0.282;2023-08-08T01:05:07;3.07;;;1.27;;
12585;SDS011;6358;50.760;0.282;2023-08-08T01:10:33;4.10;;;1.50;;
12585;SDS011;6358;50.760;0.282;2023-08-08T01:13:02;2.00;;;1.50;;
12585;SDS011;6358;50.760;0.282;2023-08-08T01:15:30;3.63;;;1.40;;
12585;SDS011;6358;50.760;0.282;2023-08-08T01:18:01;4.20;;;1.57;;
12585;SDS011;6358;50.760;0.282;2023-08-08T01:20:29;2.90;;;1.43;;
12585;SDS011;6358;50.760;0.282;2023-08-08T01:22:58;2.43;;;1.50;;
12585;SDS011;6358;50.760;0.282;2023-08-08T01:25:27;4.00;;;1.47;;
12585;SDS011;6358;50.760;0.282;2023-08-08T01:27:54;2.50;;;1.43;;
12585;SDS011;6358;50.760;0.282;2023-08-08T01:30:20;3.17;;;1.30;;
12585;SDS011;6358;50.760;0.282;2023-08-08T01:32:46;2.50;;;1.47;;
12585;SDS011;6358;50.760;0.282;2023-08-08T01:35:12;1.70;;;1.40;;
12585;SDS011;6358;50.760;0.282;2023-08-08T01:37:39;2.50;;;1.43;;
12585;SDS011;6358;50.760;0.282;2023-08-08T01:40:07;3.00;;;1.53;;
12585;SDS011;6358;50.760;0.282;2023-08-08T01:42:35;2.83;;;1.40;;
12585;SDS011;6358;50.760;0.282;2023-08-08T01:45:01;2.20;;;1.27;;
12585;SDS011;6358;50.760;0.282;2023-08-08T01:47:29;2.10;;;1.43;;
12585;SDS011;6358;50.760;0.282;2023-08-08T01:49:55;3.33;;;1.50;;
12585;SDS011;6358;50.760;0.282;2023-08-08T01:52:21;1.50;;;1.37;;
12585;SDS011;6358;50.760;0.282;2023-08-08T01:54:48;2.33;;;1.30;;
12585;SDS011;6358;50.760;0.282;2023-08-08T01:57:14;1.97;;;1.30;;
12585;SDS011;6358;50.760;0.282;2023-08-08T01:59:40;1.80;;;1.07;;
12585;SDS011;6358;50.760;0.282;2023-08-08T02:02:06;2.57;;;1.40;;
12585;SDS011;6358;50.760;0.282;2023-08-08T02:04:32;1.93;;;1.20;;
12585;SDS011;6358;50.760;0.282;2023-08-08T02:06:58;1.57;;;1.20;;
12585;SDS011;6358;50.760;0.282;2023-08-08T02:09:24;2.93;;;1.30;;
12585;SDS011;6358;50.760;0.282;2023-08-08T02:11:50;1.27;;;1.07;;
12585;SDS011;6358;50.760;0.282;2023-08-08T02:14:16;1.37;;;1.00;;
12585;SDS011;6358;50.760;0.282;2023-08-08T02:16:42;1.93;;;1.40;;
12585;SDS011;6358;50.760;0.282;2023-08-08T02:19:08;1.60;;;1.10;;
12585;SDS011;6358;50.760;0.282;2023-08-08T02:21:34;2.13;;;1.30;;
12585;SDS011;6358;50.760;0.282;2023-08-08T02:24:01;2.43;;;1.20;;
12585;SDS011;6358;50.760;0.282;2023-08-08T02:26:27;2.50;;;1.40;;
12585;SDS011;6358;50.760;0.282;2023-08-08T02:28:53;1.87;;;1.20;;
12585;SDS011;6358;50.760;0.282;2023-08-08T02:31:19;1.70;;;1.40;;
12585;SDS011;6358;50.760;0.282;2023-08-08T02:33:48;1.80;;;1.30;;
12585;SDS011;6358;50.760;0.282;2023-08-08T02:36:15;1.30;;;1.17;;
12585;SDS011;6358;50.760;0.282;2023-08-08T02:38:41;1.33;;;1.20;;
12585;SDS011;6358;50.760;0.282;2023-08-08T02:41:07;1.40;;;1.27;;
12585;SDS011;6358;50.760;0.282;2023-08-08T02:43:33;1.80;;;1.30;;
12585;SDS011;6358;50.760;0.282;2023-08-08T02:45:59;1.20;;;1.00;;
12585;SDS011;6358;50.760;0.282;2023-08-08T02:48:26;3.23;;;1.30;;
12585;SDS011;6358;50.760;0.282;2023-08-08T02:50:52;1.77;;;1.20;;
12585;SDS011;6358;50.760;0.282;2023-08-08T02:53:18;1.50;;;1.37;;
12585;SDS011;6358;50.760;0.282;2023-08-08T02:55:44;1.27;;;1.07;;
12585;SDS011;6358;50.760;0.282;2023-08-08T02:58:10;1.87;;;1.20;;
12585;SDS011;6358;50.760;0.282;2023-08-08T03:00:36;1.90;;;1.03;;
12585;SDS011;6358;50.760;0.282;2023-08-08T03:03:03;1.63;;;1.10;;
12585;SDS011;6358;50.760;0.282;2023-08-08T03:05:29;1.40;;;1.00;;
12585;SDS011;6358;50.760;0.282;2023-08-08T03:07:55;1.17;;;1.03;;
12585;SDS011;6358;50.760;0.282;2023-08-08T03:10:21;2.67;;;1.27;;
12585;SDS011;6358;50.760;0.282;2023-08-08T03:12:47;1.83;;;1.20;;
12585;SDS011;6358;50.760;0.282;2023-08-08T03:15:13;2.30;;;1.30;;
12585;SDS011;6358;50.760;0.282;2023-08-08T03:17:39;2.33;;;1.20;;
12585;SDS011;6358;50.760;0.282;2023-08-08T03:20:06;2.50;;;1.40;;
12585;SDS011;6358;50.760;0.282;2023-08-08T03:22:32;2.50;;;1.30;;
12585;SDS011;6358;50.760;0.282;2023-08-08T03:24:58;2.10;;;1.27;;
12585;SDS011;6358;50.760;0.282;2023-08-08T03:27:24;1.77;;;1.20;;
12585;SDS011;6358;50.760;0.282;2023-08-08T03:29:50;1.30;;;0.97;;
12585;SDS011;6358;50.760;0.282;2023-08-08T03:32:16;1.33;;;0.97;;
12585;SDS011;6358;50.760;0.282;2023-08-08T03:34:43;1.30;;;1.20;;
12585;SDS011;6358;50.760;0.282;2023-08-08T03:37:09;1.20;;;1.10;;
12585;SDS011;6358;50.760;0.282;2023-08-08T03:39:35;2.27;;;1.20;;
12585;SDS011;6358;50.760;0.282;2023-08-08T03:42:01;1.53;;;1.30;;
12585;SDS011;6358;50.760;0.282;2023-08-08T03:44:27;1.20;;;1.10;;
12585;SDS011;6358;50.760;0.282;2023-08-08T03:46:53;1.47;;;1.00;;
12585;SDS011;6358;50.760;0.282;2023-08-08T03:49:19;1.97;;;1.33;;
12585;SDS011;6358;50.760;0.282;2023-08-08T03:51:45;1.43;;;1.13;;
12585;SDS011;6358;50.760;0.282;2023-08-08T03:54:13;1.70;;;1.20;;
12585;SDS011;6358;50.760;0.282;2023-08-08T03:56:40;1.20;;;1.10;;
12585;SDS011;6358;50.760;0.282;2023-08-08T03:59:06;2.00;;;1.20;;
12585;SDS011;6358;50.760;0.282;2023-08-08T04:01:32;2.67;;;1.40;;
12585;SDS011;6358;50.760;0.282;2023-08-08T04:03:58;1.97;;;1.03;;
12585;SDS011;6358;50.760;0.282;2023-08-08T04:06:24;1.20;;;1.10;;
12585;SDS011;6358;50.760;0.282;2023-08-08T04:08:50;1.80;;;1.30;;
12585;SDS011;6358;50.760;0.282;2023-08-08T04:11:16;2.47;;;1.37;;
12585;SDS011;6358;50.760;0.282;2023-08-08T04:13:42;2.00;;;1.20;;
12585;SDS011;6358;50.760;0.282;2023-08-08T04:16:08;1.90;;;1.30;;
12585;SDS011;6358;50.760;0.282;2023-08-08T04:18:34;1.70;;;1.17;;
12585;SDS011;6358;50.760;0.282;2023-08-08T04:21:00;1.30;;;1.20;;
12585;SDS011;6358;50.760;0.282;2023-08-08T04:23:26;1.10;;;1.00;;
12585;SDS011;6358;50.760;0.282;2023-08-08T04:25:53;1.47;;;1.07;;
12585;SDS011;6358;50.760;0.282;2023-08-08T04:28:19;1.60;;;1.00;;
12585;SDS011;6358;50.760;0.282;2023-08-08T04:30:45;1.00;;;1.00;;
12585;SDS011;6358;50.760;0.282;2023-08-08T04:33:11;2.40;;;1.20;;
12585;SDS011;6358;50.760;0.282;2023-08-08T04:35:37;1.33;;;1.17;;
12585;SDS011;6358;50.760;0.282;2023-08-08T04:38:03;1.20;;;1.10;;
12585;SDS011;6358;50.760;0.282;2023-08-08T04:40:29;1.40;;;1.07;;
12585;SDS011;6358;50.760;0.282;2023-08-08T04:42:56;1.30;;;1.10;;
12585;SDS011;6358;50.760;0.282;2023-08-08T04:45:22;1.83;;;1.07;;
12585;SDS011;6358;50.760;0.282;2023-08-08T04:47:48;3.23;;;1.30;;
12585;SDS011;6358;50.760;0.282;2023-08-08T04:50:14;1.30;;;1.10;;
12585;SDS011;6358;50.760;0.282;2023-08-08T04:52:40;1.20;;;1.10;;
12585;SDS011;6358;50.760;0.282;2023-08-08T04:55:06;1.27;;;1.00;;
12585;SDS011;6358;50.760;0.282;2023-08-08T04:57:32;1.43;;;1.10;;
12585;SDS011;6358;50.760;0.282;2023-08-08T04:59:58;1.07;;;0.97;;
12585;SDS011;6358;50.760;0.282;2023-08-08T05:02:29;1.00;;;0.93;;
12585;SDS011;6358;50.760;0.282;2023-08-08T05:04:55;1.77;;;1.13;;
12585;SDS011;6358;50.760;0.282;2023-08-08T05:07:21;1.60;;;1.10;;
12585;SDS011;6358;50.760;0.282;2023-08-08T05:09:48;1.23;;;0.80;;
12585;SDS011;6358;50.760;0.282;2023-08-08T05:12:14;1.07;;;0.97;;
12585;SDS011;6358;50.760;0.282;2023-08-08T05:14:40;1.57;;;1.00;;
12585;SDS011;6358;50.760;0.282;2023-08-08T05:17:06;1.53;;;1.30;;
12585;SDS011;6358;50.760;0.282;2023-08-08T05:19:32;1.63;;;1.13;;
12585;SDS011;6358;50.760;0.282;2023-08-08T05:21:58;2.23;;;1.20;;
12585;SDS011;6358;50.760;0.282;2023-08-08T05:24:25;1.20;;;0.90;;
12585;SDS011;6358;50.760;0.282;2023-08-08T05:26:51;1.13;;;1.03;;
12585;SDS011;6358;50.760;0.282;2023-08-08T05:29:18;2.00;;;1.10;;
12585;SDS011;6358;50.760;0.282;2023-08-08T05:31:45;1.20;;;1.10;;
12585;SDS011;6358;50.760;0.282;2023-08-08T05:34:12;1.77;;;1.20;;
12585;SDS011;6358;50.760;0.282;2023-08-08T05:36:38;1.03;;;1.00;;
12585;SDS011;6358;50.760;0.282;2023-08-08T05:39:05;1.67;;;1.17;;
12585;SDS011;6358;50.760;0.282;2023-08-08T05:41:32;1.50;;;1.07;;
12585;SDS011;6358;50.760;0.282;2023-08-08T05:43:58;1.30;;;1.13;;
12585;SDS011;6358;50.760;0.282;2023-08-08T05:46:24;1.13;;;1.00;;
12585;SDS011;6358;50.760;0.282;2023-08-08T05:48:50;1.00;;;0.90;;
12585;SDS011;6358;50.760;0.282;2023-08-08T05:51:16;1.10;;;1.00;;
12585;SDS011;6358;50.760;0.282;2023-08-08T05:53:42;1.17;;;1.07;;
12585;SDS011;6358;50.760;0.282;2023-08-08T05:56:08;0.90;;;0.90;;
12585;SDS011;6358;50.760;0.282;2023-08-08T05:58:34;1.10;;;1.00;;
12585;SDS011;6358;50.760;0.282;2023-08-08T06:01:02;0.80;;;0.80;;
12585;SDS011;6358;50.760;0.282;2023-08-08T06:03:34;2.43;;;1.20;;
12585;SDS011;6358;50.760;0.282;2023-08-08T06:06:02;1.10;;;0.93;;
12585;SDS011;6358;50.760;0.282;2023-08-08T06:08:29;1.13;;;0.90;;
12585;SDS011;6358;50.760;0.282;2023-08-08T06:10:55;1.20;;;1.10;;
12585;SDS011;6358;50.760;0.282;2023-08-08T06:13:21;2.33;;;1.13;;
12585;SDS011;6358;50.760;0.282;2023-08-08T06:15:47;1.23;;;1.07;;
12585;SDS011;6358;50.760;0.282;2023-08-08T06:18:13;2.03;;;1.23;;
12585;SDS011;6358;50.760;0.282;2023-08-08T06:20:40;0.93;;;0.93;;
12585;SDS011;6358;50.760;0.282;2023-08-08T06:23:06;2.80;;;1.20;;
12585;SDS011;6358;50.760;0.282;2023-08-08T06:25:32;1.43;;;1.00;;
12585;SDS011;6358;50.760;0.282;2023-08-08T06:27:58;1.00;;;0.90;;
12585;SDS011;6358;50.760;0.282;2023-08-08T06:30:24;1.10;;;1.00;;
12585;SDS011;6358;50.760;0.282;2023-08-08T06:32:50;1.17;;;1.07;;
12585;SDS011;6358;50.760;0.282;2023-08-08T06:35:16;1.53;;;1.30;;
12585;SDS011;6358;50.760;0.282;2023-08-08T06:37:43;2.37;;;1.17;;
12585;SDS011;6358;50.760;0.282;2023-08-08T06:40:09;3.73;;;1.20;;
12585;SDS011;6358;50.760;0.282;2023-08-08T06:42:36;1.00;;;1.00;;
12585;SDS011;6358;50.760;0.282;2023-08-08T06:45:02;1.43;;;1.00;;
12585;SDS011;6358;50.760;0.282;2023-08-08T06:47:28;1.10;;;1.00;;
12585;SDS011;6358;50.760;0.282;2023-08-08T06:49:54;1.40;;;1.10;;
12585;SDS011;6358;50.760;0.282;2023-08-08T06:52:23;1.43;;;1.00;;
12585;SDS011;6358;50.760;0.282;2023-08-08T06:54:50;3.33;;;1.30;;
12585;SDS011;6358;50.760;0.282;2023-08-08T06:57:16;1.37;;;0.87;;
12585;SDS011;6358;50.760;0.282;2023-08-08T06:59:42;3.23;;;1.00;;
12585;SDS011;6358;50.760;0.282;2023-08-08T07:02:08;1.83;;;1.23;;
12585;SDS011;6358;50.760;0.282;2023-08-08T07:04:34;1.73;;;1.30;;
12585;SDS011;6358;50.760;0.282;2023-08-08T07:07:01;3.73;;;1.30;;
12585;SDS011;6358;50.760;0.282;2023-08-08T07:09:27;2.43;;;1.13;;
12585;SDS011;6358;50.760;0.282;2023-08-08T07:11:53;1.53;;;1.13;;
12585;SDS011;6358;50.760;0.282;2023-08-08T07:14:19;0.87;;;0.77;;
12585;SDS011;6358;50.760;0.282;2023-08-08T07:16:45;2.13;;;1.13;;
12585;SDS011;6358;50.760;0.282;2023-08-08T07:19:12;3.10;;;1.20;;
12585;SDS011;6358;50.760;0.282;2023-08-08T07:21:38;1.63;;;1.27;;
12585;SDS011;6358;50.760;0.282;2023-08-08T07:24:04;3.17;;;1.60;;
12585;SDS011;6358;50.760;0.282;2023-08-08T07:26:30;5.87;;;2.40;;
12585;SDS011;6358;50.760;0.282;2023-08-08T07:28:57;13.03;;;8.63;;
12585;SDS011;6358;50.760;0.282;2023-08-08T07:31:23;28.10;;;23.27;;
12585;SDS011;6358;50.760;0.282;2023-08-08T07:33:49;21.63;;;19.33;;
12585;SDS011;6358;50.760;0.282;2023-08-08T07:36:15;22.87;;;20.40;;
12585;SDS011;6358;50.760;0.282;2023-08-08T07:38:41;27.87;;;20.47;;
12585;SDS011;6358;50.760;0.282;2023-08-08T07:41:07;23.40;;;18.97;;
12585;SDS011;6358;50.760;0.282;2023-08-08T07:43:33;14.77;;;13.20;;
12585;SDS011;6358;50.760;0.282;2023-08-08T07:45:59;12.97;;;10.07;;
12585;SDS011;6358;50.760;0.282;2023-08-08T07:48:25;18.10;;;14.67;;
12585;SDS011;6358;50.760;0.282;2023-08-08T07:50:51;14.27;;;11.13;;
12585;SDS011;6358;50.760;0.282;2023-08-08T07:53:17;14.70;;;12.40;;
12585;SDS011;6358;50.760;0.282;2023-08-08T07:55:43;14.63;;;11.70;;
12585;SDS011;6358;50.760;0.282;2023-08-08T07:58:09;10.67;;;7.43;;
12585;SDS011;6358;50.760;0.282;2023-08-08T08:00:35;15.17;;;10.90;;
12585;SDS011;6358;50.760;0.282;2023-08-08T08:03:03;10.03;;;8.17;;
12585;SDS011;6358;50.760;0.282;2023-08-08T08:05:29;6.07;;;4.67;;
12585;SDS011;6358;50.760;0.282;2023-08-08T08:07:56;4.90;;;4.40;;
12585;SDS011;6358;50.760;0.282;2023-08-08T08:10:22;7.13;;;6.43;;
12585;SDS011;6358;50.760;0.282;2023-08-08T08:12:48;11.00;;;7.23;;
12585;SDS011;6358;50.760;0.282;2023-08-08T08:15:14;9.87;;;7.53;;
12585;SDS011;6358;50.760;0.282;2023-08-08T08:17:40;6.10;;;5.50;;
12585;SDS011;6358;50.760;0.282;2023-08-08T08:20:06;6.43;;;5.30;;
12585;SDS011;6358;50.760;0.282;2023-08-08T08:22:35;9.27;;;6.03;;
12585;SDS011;6358;50.760;0.282;2023-08-08T08:25:02;8.07;;;6.10;;
12585;SDS011;6358;50.760;0.282;2023-08-08T08:27:28;7.77;;;5.37;;
12585;SDS011;6358;50.760;0.282;2023-08-08T08:29:54;4.93;;;4.37;;
12585;SDS011;6358;50.760;0.282;2023-08-08T08:32:20;6.80;;;5.00;;
12585;SDS011;6358;50.760;0.282;2023-08-08T08:34:46;7.30;;;4.90;;
12585;SDS011;6358;50.760;0.282;2023-08-08T08:37:12;6.43;;;4.90;;
12585;SDS011;6358;50.760;0.282;2023-08-08T08:39:38;7.47;;;4.67;;
12585;SDS011;6358;50.760;0.282;2023-08-08T08:42:04;9.17;;;4.90;;
12585;SDS011;6358;50.760;0.282;2023-08-08T08:44:31;7.77;;;4.37;;
12585;SDS011;6358;50.760;0.282;2023-08-08T08:46:58;4.50;;;4.00;;
12585;SDS011;6358;50.760;0.282;2023-08-08T08:49:25;5.00;;;4.07;;
12585;SDS011;6358;50.760;0.282;2023-08-08T08:51:54;6.80;;;4.43;;
12585;SDS011;6358;50.760;0.282;2023-08-08T08:54:21;5.50;;;3.63;;
12585;SDS011;6358;50.760;0.282;2023-08-08T08:56:48;5.27;;;3.73;;
12585;SDS011;6358;50.760;0.282;2023-08-08T08:59:15;6.60;;;3.23;;
12585;SDS011;6358;50.760;0.282;2023-08-08T09:01:41;7.90;;;3.47;;
12585;SDS011;6358;50.760;0.282;2023-08-08T09:04:07;5.03;;;3.30;;
12585;SDS011;6358;50.760;0.282;2023-08-08T09:06:34;4.30;;;3.33;;
12585;SDS011;6358;50.760;0.282;2023-08-08T09:09:03;4.40;;;3.30;;
12585;SDS011;6358;50.760;0.282;2023-08-08T09:11:30;4.20;;;3.10;;
12585;SDS011;6358;50.760;0.282;2023-08-08T09:13:57;5.97;;;3.10;;
12585;SDS011;6358;50.760;0.282;2023-08-08T09:16:24;4.20;;;3.17;;
12585;SDS011;6358;50.760;0.282;2023-08-08T09:18:51;3.50;;;2.87;;
12585;SDS011;6358;50.760;0.282;2023-08-08T09:21:18;4.77;;;2.73;;
12585;SDS011;6358;50.760;0.282;2023-08-08T09:23:44;5.77;;;2.80;;
12585;SDS011;6358;50.760;0.282;2023-08-08T09:26:12;3.30;;;2.80;;
12585;SDS011;6358;50.760;0.282;2023-08-08T09:28:38;4.37;;;2.67;;
12585;SDS011;6358;50.760;0.282;2023-08-08T09:31:05;3.53;;;2.27;;
12585;SDS011;6358;50.760;0.282;2023-08-08T09:33:31;6.17;;;2.57;;
12585;SDS011;6358;50.760;0.282;2023-08-08T09:35:57;4.67;;;2.30;;
12585;SDS011;6358;50.760;0.282;2023-08-08T09:38:23;3.13;;;2.53;;
12585;SDS011;6358;50.760;0.282;2023-08-08T09:40:49;3.53;;;2.50;;
12585;SDS011;6358;50.760;0.282;2023-08-08T09:43:16;4.40;;;2.40;;
12585;SDS011;6358;50.760;0.282;2023-08-08T09:45:42;2.50;;;2.07;;
12585;SDS011;6358;50.760;0.282;2023-08-08T09:48:09;4.23;;;2.43;;
12585;SDS011;6358;50.760;0.282;2023-08-08T09:50:35;3.57;;;2.27;;
12585;SDS011;6358;50.760;0.282;2023-08-08T09:53:02;2.67;;;2.00;;
12585;SDS011;6358;50.760;0.282;2023-08-08T09:55:28;3.20;;;2.30;;
12585;SDS011;6358;50.760;0.282;2023-08-08T09:57:55;3.43;;;2.00;;
12585;SDS011;6358;50.760;0.282;2023-08-08T10:00:23;2.33;;;1.87;;
12585;SDS011;6358;50.760;0.282;2023-08-08T10:02:52;3.43;;;2.10;;
12585;SDS011;6358;50.760;0.282;2023-08-08T10:05:19;2.10;;;1.87;;
12585;SDS011;6358;50.760;0.282;2023-08-08T10:07:45;3.17;;;2.07;;
12585;SDS011;6358;50.760;0.282;2023-08-08T10:10:11;3.30;;;2.20;;
12585;SDS011;6358;50.760;0.282;2023-08-08T10:12:38;1.97;;;1.70;;
12585;SDS011;6358;50.760;0.282;2023-08-08T10:15:08;2.27;;;1.93;;
12585;SDS011;6358;50.760;0.282;2023-08-08T10:17:36;3.03;;;1.90;;
12585;SDS011;6358;50.760;0.282;2023-08-08T10:20:02;2.40;;;1.70;;
12585;SDS011;6358;50.760;0.282;2023-08-08T10:22:36;2.13;;;1.50;;
12585;SDS011;6358;50.760;0.282;2023-08-08T10:25:03;2.10;;;1.63;;
12585;SDS011;6358;50.760;0.282;2023-08-08T10:27:33;1.77;;;1.67;;
12585;SDS011;6358;50.760;0.282;2023-08-08T10:30:04;1.50;;;1.40;;
12585;SDS011;6358;50.760;0.282;2023-08-08T10:32:39;2.20;;;1.48;;
12585;SDS011;6358;50.760;0.282;2023-08-08T10:35:05;2.10;;;1.77;;
12585;SDS011;6358;50.760;0.282;2023-08-08T10:37:33;1.70;;;1.50;;
12585;SDS011;6358;50.760;0.282;2023-08-08T10:39:59;2.10;;;1.70;;
12585;SDS011;6358;50.760;0.282;2023-08-08T10:42:27;1.67;;;1.50;;
12585;SDS011;6358;50.760;0.282;2023-08-08T10:44:59;1.60;;;1.37;;
12585;SDS011;6358;50.760;0.282;2023-08-08T10:47:30;1.93;;;1.53;;
12585;SDS011;6358;50.760;0.282;2023-08-08T10:50:03;1.80;;;1.40;;
12585;SDS011;6358;50.760;0.282;2023-08-08T10:52:29;1.90;;;1.60;;
12585;SDS011;6358;50.760;0.282;2023-08-08T10:54:56;2.07;;;1.50;;
12585;SDS011;6358;50.760;0.282;2023-08-08T10:57:25;2.27;;;1.70;;
12585;SDS011;6358;50.760;0.282;2023-08-08T10:59:51;2.53;;;1.40;;
12585;SDS011;6358;50.760;0.282;2023-08-08T11:02:18;1.83;;;1.30;;
12585;SDS011;6358;50.760;0.282;2023-08-08T11:04:44;1.77;;;1.50;;
12585;SDS011;6358;50.760;0.282;2023-08-08T11:07:11;1.90;;;1.43;;
12585;SDS011;6358;50.760;0.282;2023-08-08T11:09:37;1.50;;;1.40;;
12585;SDS011;6358;50.760;0.282;2023-08-08T11:12:04;3.47;;;1.60;;
12585;SDS011;6358;50.760;0.282;2023-08-08T11:14:30;1.60;;;1.50;;
12585;SDS011;6358;50.760;0.282;2023-08-08T11:16:56;1.50;;;1.40;;
12585;SDS011;6358;50.760;0.282;2023-08-08T11:19:22;1.73;;;1.40;;
12585;SDS011;6358;50.760;0.282;2023-08-08T11:21:48;2.50;;;1.50;;
12585;SDS011;6358;50.760;0.282;2023-08-08T11:24:15;1.50;;;1.40;;
12585;SDS011;6358;50.760;0.282;2023-08-08T11:26:41;2.23;;;1.27;;
12585;SDS011;6358;50.760;0.282;2023-08-08T11:29:10;1.53;;;1.20;;
12585;SDS011;6358;50.760;0.282;2023-08-08T11:31:36;1.87;;;1.47;;
12585;SDS011;6358;50.760;0.282;2023-08-08T11:34:03;1.40;;;1.20;;
12585;SDS011;6358;50.760;0.282;2023-08-08T11:36:30;1.40;;;1.20;;
12585;SDS011;6358;50.760;0.282;2023-08-08T11:38:57;1.83;;;1.30;;
12585;SDS011;6358;50.760;0.282;2023-08-08T11:41:25;2.00;;;1.37;;
12585;SDS011;6358;50.760;0.282;2023-08-08T11:43:51;2.13;;;1.13;;
12585;SDS011;6358;50.760;0.282;2023-08-08T11:46:18;1.63;;;1.20;;
12585;SDS011;6358;50.760;0.282;2023-08-08T11:48:47;1.53;;;1.20;;
12585;SDS011;6358;50.760;0.282;2023-08-08T11:51:14;2.13;;;1.40;;
12585;SDS011;6358;50.760;0.282;2023-08-08T11:53:50;1.67;;;1.20;;
12585;SDS011;6358;50.760;0.282;2023-08-08T11:56:17;2.63;;;1.27;;
12585;SDS011;6358;50.760;0.282;2023-08-08T11:58:44;1.40;;;1.30;;
12585;SDS011;6358;50.760;0.282;2023-08-08T12:01:10;1.50;;;1.20;;
12585;SDS011;6358;50.760;0.282;2023-08-08T12:03:39;1.83;;;1.20;;
12585;SDS011;6358;50.760;0.282;2023-08-08T12:06:12;1.80;;;1.23;;
12585;SDS011;6358;50.760;0.282;2023-08-08T12:08:40;1.87;;;1.37;;
12585;SDS011;6358;50.760;0.282;2023-08-08T12:11:08;1.57;;;1.30;;
12585;SDS011;6358;50.760;0.282;2023-08-08T12:13:34;1.60;;;1.13;;
12585;SDS011;6358;50.760;0.282;2023-08-08T12:16:03;1.50;;;1.00;;
12585;SDS011;6358;50.760;0.282;2023-08-08T12:18:31;1.37;;;1.10;;
12585;SDS011;6358;50.760;0.282;2023-08-08T12:20:58;1.57;;;1.30;;
12585;SDS011;6358;50.760;0.282;2023-08-08T12:23:25;1.47;;;1.20;;
12585;SDS011;6358;50.760;0.282;2023-08-08T12:25:52;1.27;;;1.00;;
12585;SDS011;6358;50.760;0.282;2023-08-08T12:28:18;1.37;;;1.27;;
12585;SDS011;6358;50.760;0.282;2023-08-08T12:30:44;1.30;;;1.13;;
12585;SDS011;6358;50.760;0.282;2023-08-08T12:33:11;1.80;;;1.23;;
12585;SDS011;6358;50.760;0.282;2023-08-08T12:35:37;1.40;;;1.30;;
12585;SDS011;6358;50.760;0.282;2023-08-08T12:38:03;2.00;;;1.20;;
12585;SDS011;6358;50.760;0.282;2023-08-08T12:40:29;1.77;;;1.30;;
12585;SDS011;6358;50.760;0.282;2023-08-08T12:42:55;2.17;;;1.13;;
12585;SDS011;6358;50.760;0.282;2023-08-08T12:45:22;2.00;;;1.30;;
12585;SDS011;6358;50.760;0.282;2023-08-08T12:47:48;1.23;;;1.00;;
12585;SDS011;6358;50.760;0.282;2023-08-08T12:50:15;1.57;;;1.17;;
12585;SDS011;6358;50.760;0.282;2023-08-08T12:52:41;2.00;;;1.13;;
12585;SDS011;6358;50.760;0.282;2023-08-08T12:55:07;1.20;;;1.10;;
12585;SDS011;6358;50.760;0.282;2023-08-08T12:57:34;1.67;;;1.00;;
12585;SDS011;6358;50.760;0.282;2023-08-08T13:00:00;2.50;;;1.17;;
12585;SDS011;6358;50.760;0.282;2023-08-08T13:02:26;1.23;;;1.13;;
12585;SDS011;6358;50.760;0.282;2023-08-08T13:04:52;1.37;;;1.20;;
12585;SDS011;6358;50.760;0.282;2023-08-08T13:07:18;1.17;;;1.00;;
12585;SDS011;6358;50.760;0.282;2023-08-08T13:09:44;1.63;;;1.00;;
12585;SDS011;6358;50.760;0.282;2023-08-08T13:12:11;1.47;;;1.20;;
12585;SDS011;6358;50.760;0.282;2023-08-08T13:14:37;2.13;;;1.23;;
12585;SDS011;6358;50.760;0.282;2023-08-08T13:17:03;1.13;;;0.97;;
12585;SDS011;6358;50.760;0.282;2023-08-08T13:19:29;1.63;;;1.03;;
12585;SDS011;6358;50.760;0.282;2023-08-08T13:21:55;2.07;;;1.10;;
12585;SDS011;6358;50.760;0.282;2023-08-08T13:24:22;2.30;;;1.20;;
12585;SDS011;6358;50.760;0.282;2023-08-08T13:26:48;1.20;;;1.10;;
12585;SDS011;6358;50.760;0.282;2023-08-08T13:29:14;1.27;;;1.00;;
12585;SDS011;6358;50.760;0.282;2023-08-08T13:31:40;1.73;;;1.20;;
12585;SDS011;6358;50.760;0.282;2023-08-08T13:34:06;2.30;;;1.20;;
12585;SDS011;6358;50.760;0.282;2023-08-08T13:36:33;1.40;;;1.17;;
12585;SDS011;6358;50.760;0.282;2023-08-08T13:38:59;1.20;;;1.10;;
12585;SDS011;6358;50.760;0.282;2023-08-08T13:41:25;1.83;;;1.10;;
12585;SDS011;6358;50.760;0.282;2023-08-08T13:43:51;2.70;;;1.20;;
12585;SDS011;6358;50.760;0.282;2023-08-08T13:46:17;2.30;;;1.40;;
12585;SDS011;6358;50.760;0.282;2023-08-08T13:48:43;1.87;;;1.43;;
12585;SDS011;6358;50.760;0.282;2023-08-08T13:51:09;1.90;;;1.10;;
12585;SDS011;6358;50.760;0.282;2023-08-08T13:53:35;1.65;;;1.38;;
12585;SDS011;6358;50.760;0.282;2023-08-08T13:56:01;2.00;;;1.30;;
12585;SDS011;6358;50.760;0.282;2023-08-08T13:58:27;1.50;;;1.07;;
12585;SDS011;6358;50.760;0.282;2023-08-08T14:00:54;2.30;;;1.43;;
12585;SDS011;6358;50.760;0.282;2023-08-08T14:03:22;2.47;;;1.20;;
12585;SDS011;6358;50.760;0.282;2023-08-08T14:05:49;2.80;;;1.37;;
12585;SDS011;6358;50.760;0.282;2023-08-08T14:08:17;1.50;;;1.10;;
12585;SDS011;6358;50.760;0.282;2023-08-08T14:10:43;1.37;;;1.00;;
12585;SDS011;6358;50.760;0.282;2023-08-08T14:13:09;1.20;;;1.03;;
12585;SDS011;6358;50.760;0.282;2023-08-08T14:15:36;1.57;;;1.20;;
12585;SDS011;6358;50.760;0.282;2023-08-08T14:18:03;1.70;;;1.00;;
12585;SDS011;6358;50.760;0.282;2023-08-08T14:20:29;2.10;;;1.37;;
12585;SDS011;6358;50.760;0.282;2023-08-08T14:22:56;1.63;;;0.90;;
12585;SDS011;6358;50.760;0.282;2023-08-08T14:25:22;1.43;;;1.07;;
12585;SDS011;6358;50.760;0.282;2023-08-08T14:27:48;1.60;;;1.20;;
12585;SDS011;6358;50.760;0.282;2023-08-08T14:30:14;2.43;;;1.20;;
12585;SDS011;6358;50.760;0.282;2023-08-08T14:32:40;1.55;;;1.00;;
12585;SDS011;6358;50.760;0.282;2023-08-08T14:35:06;1.30;;;1.20;;
12585;SDS011;6358;50.760;0.282;2023-08-08T14:37:34;2.33;;;1.20;;
12585;SDS011;6358;50.760;0.282;2023-08-08T14:40:00;1.88;;;1.25;;
12585;SDS011;6358;50.760;0.282;2023-08-08T14:42:27;2.13;;;1.30;;
12585;SDS011;6358;50.760;0.282;2023-08-08T14:44:53;1.60;;;1.23;;
12585;SDS011;6358;50.760;0.282;2023-08-08T14:47:19;1.27;;;1.07;;
12585;SDS011;6358;50.760;0.282;2023-08-08T14:49:46;2.37;;;1.40;;
12585;SDS011;6358;50.760;0.282;2023-08-08T14:52:12;1.53;;;0.90;;
12585;SDS011;6358;50.760;0.282;2023-08-08T14:54:38;1.80;;;1.27;;
12585;SDS011;6358;50.760;0.282;2023-08-08T14:57:05;1.50;;;1.40;;
12585;SDS011;6358;50.760;0.282;2023-08-08T14:59:31;1.13;;;1.00;;